Needville, Texas
Current Conditions -  °F | °C
As of 5:00 PM on Thursday 18 Dec 2014 (Local Time) from KSGR Reporting Station
Broken Clouds Broken Clouds  
Wind Chill: 70°   Ceiling: 2800
Heat Index: 70°   Visibility: 10mi
Dew Point: 62°   Wind: 9mph
Humidity: 76%   Direction: 20°NNE
Pressure: 30.02"   Gusts: NA
Location:  29.4°N, 95.84°W
Report Text: KSGR 182300Z 02008KT 10SM FEW021 BKN028 BKN038 21/17 A3002 RMK AO2 T02110167
Loading
Personal Weather Stations






























Interactive Weather Map New forecast layout! Learn more

10-Day Weather Forecast

Advertisements
Track Severe Weather on mobile